createdAt,value
2023-04-22T00:00:30.449Z,227.40
2023-04-22T00:10:33.798Z,226.87
2023-04-22T00:20:39.316Z,228.93
2023-04-22T00:30:42.786Z,225.90
2023-04-22T00:40:47.528Z,221.60
2023-04-22T00:50:50.942Z,217.83
2023-04-22T01:00:55.732Z,227.40
2023-04-22T01:10:59.462Z,218.47
2023-04-22T01:21:04.518Z,222.80
2023-04-22T01:31:10.071Z,229.93
2023-04-22T01:41:14.750Z,221.53
2023-04-22T01:51:21.867Z,212.53
2023-04-22T02:01:25.332Z,214.93
2023-04-22T02:11:30.116Z,209.17
2023-04-22T02:21:33.606Z,213.17
2023-04-22T02:31:38.448Z,210.73
2023-04-22T02:41:41.936Z,211.10
2023-04-22T02:51:46.913Z,211.87
2023-04-22T03:01:50.478Z,210.77
2023-04-22T03:12:10.032Z,210.50
2023-04-22T03:22:13.645Z,206.53
2023-04-22T03:32:19.076Z,212.00
2023-04-22T03:42:25.942Z,212.73
2023-04-22T03:52:30.764Z,207.10
2023-04-22T04:02:38.893Z,207.87
2023-04-22T04:12:44.421Z,207.20
2023-04-22T04:22:48.174Z,201.47
2023-04-22T04:32:53.522Z,214.23
2023-04-22T04:42:58.039Z,210.43
2023-04-22T04:53:10.164Z,214.37
2023-04-22T05:03:17.505Z,226.57
2023-04-22T05:13:23.654Z,230.67
2023-04-22T05:23:28.054Z,225.53
2023-04-22T05:33:35.114Z,234.80
2023-04-22T05:43:38.725Z,227.20
2023-04-22T05:53:52.421Z,225.30
2023-04-22T06:03:57.393Z,222.90
2023-04-22T06:14:03.420Z,220.70
2023-04-22T06:24:09.305Z,225.80
2023-04-22T06:34:14.450Z,230.73
2023-04-22T06:44:18.303Z,223.33
2023-04-22T06:54:51.232Z,216.37
2023-04-22T07:04:55.051Z,222.07
2023-04-22T07:15:00.108Z,220.83
2023-04-22T07:25:03.605Z,222.10
2023-04-22T07:35:09.749Z,228.23
2023-04-22T07:45:13.488Z,224.43
2023-04-22T07:55:18.553Z,217.60
2023-04-22T08:05:22.044Z,213.15
2023-04-22T08:15:27.038Z,210.30
2023-04-22T08:25:31.530Z,214.80
2023-04-22T08:35:37.966Z,207.52
2023-04-22T08:45:42.353Z,211.57
2023-04-22T08:55:49.871Z,207.57
2023-04-22T09:05:54.537Z,196.23
2023-04-22T09:16:00.095Z,196.02
2023-04-22T09:26:03.713Z,194.52
2023-04-22T09:36:11.783Z,199.07
2023-04-22T09:46:15.430Z,187.70
2023-04-22T09:56:20.388Z,188.50
2023-04-22T10:06:23.799Z,186.20
2023-04-22T10:16:32.204Z,181.25
2023-04-22T10:26:44.412Z,182.10
2023-04-22T10:37:02.046Z,176.98
2023-04-22T10:47:05.609Z,175.95
2023-04-22T10:57:12.489Z,176.40
2023-04-22T11:07:17.168Z,174.85
2023-04-22T11:17:22.742Z,189.15
2023-04-22T11:27:27.232Z,181.48
2023-04-22T11:37:32.388Z,176.60
2023-04-22T11:47:37.048Z,178.60
2023-04-22T11:57:42.356Z,190.45
2023-04-22T12:07:45.695Z,185.35
2023-04-22T12:17:52.360Z,180.60
2023-04-22T12:27:56.178Z,171.65
2023-04-22T12:38:00.884Z,184.70
2023-04-22T12:48:04.611Z,174.10
2023-04-22T12:58:09.478Z,179.07
2023-04-22T13:08:12.975Z,189.10
2023-04-22T13:18:18.135Z,204.77
2023-04-22T13:28:21.749Z,215.25
2023-04-22T13:38:26.601Z,215.35
2023-04-22T13:48:30.168Z,215.68
2023-04-22T13:58:35.278Z,210.52
2023-04-22T14:08:39.098Z,212.20
2023-04-22T14:18:45.663Z,211.37
2023-04-22T14:28:49.054Z,205.37
2023-04-22T14:38:53.877Z,211.70
2023-04-22T14:48:57.303Z,211.20
2023-04-22T14:59:02.099Z,208.90
2023-04-22T15:09:05.669Z,208.47
2023-04-22T15:19:10.605Z,218.47
2023-04-22T15:29:14.264Z,220.30
2023-04-22T15:39:20.190Z,211.33
2023-04-22T15:49:23.660Z,212.97
2023-04-22T15:59:28.716Z,214.33
2023-04-22T16:09:32.059Z,211.40
2023-04-22T16:19:37.112Z,217.63
2023-04-22T16:29:41.333Z,210.87
2023-04-22T16:39:46.385Z,216.60
2023-04-22T16:49:49.907Z,217.60
2023-04-22T16:59:54.715Z,210.80
2023-04-22T17:09:58.096Z,213.57
2023-04-22T17:20:03.062Z,223.07
2023-04-22T17:30:08.156Z,216.73
2023-04-22T17:40:13.360Z,217.07
2023-04-22T17:50:16.795Z,225.60
2023-04-22T18:00:22.135Z,217.30
2023-04-22T18:10:25.716Z,225.80
2023-04-22T18:20:30.463Z,228.67
2023-04-22T18:30:33.961Z,218.67
2023-04-22T18:40:38.736Z,221.77
2023-04-22T18:50:42.171Z,229.13
2023-04-22T19:00:46.944Z,218.60
2023-04-22T19:10:50.630Z,223.93
2023-04-22T19:20:55.531Z,215.10
2023-04-22T19:31:00.173Z,226.50
2023-04-22T19:41:05.097Z,227.23
2023-04-22T19:51:10.138Z,230.10
2023-04-22T20:01:15.462Z,212.27
2023-04-22T20:11:19.358Z,235.30
2023-04-22T20:21:24.313Z,223.33
2023-04-22T20:31:28.136Z,237.87
2023-04-22T20:41:38.732Z,230.03
2023-04-22T20:51:42.872Z,214.63
2023-04-22T21:01:48.508Z,215.33
2023-04-22T21:11:52.782Z,220.97
2023-04-22T21:21:59.483Z,222.37
2023-04-22T21:32:09.213Z,226.53
2023-04-22T21:42:14.909Z,221.90
2023-04-22T21:52:18.265Z,228.20
2023-04-22T22:02:23.324Z,234.93
2023-04-22T22:12:26.934Z,214.73
2023-04-22T22:22:32.408Z,223.97
2023-04-22T22:32:37.540Z,218.13
2023-04-22T22:42:42.242Z,263.90
2023-04-22T22:52:45.665Z,226.43
2023-04-22T23:02:50.605Z,234.37
2023-04-22T23:12:54.130Z,240.17
2023-04-22T23:23:02.444Z,235.43
2023-04-22T23:33:07.403Z,234.97
2023-04-22T23:43:12.330Z,226.93
2023-04-22T23:53:15.733Z,225.20
